createdAt,value
2018-10-02T00:00:05.487Z,1011.70
2018-10-02T00:01:05.440Z,1011.73
2018-10-02T00:02:05.398Z,1011.68
2018-10-02T00:03:05.348Z,1011.70
2018-10-02T00:04:05.302Z,1011.72
2018-10-02T00:05:05.259Z,1011.76
2018-10-02T00:06:05.211Z,1011.73
2018-10-02T00:07:05.168Z,1011.72
2018-10-02T00:08:05.169Z,1011.70
2018-10-02T00:09:05.073Z,1011.68
2018-10-02T00:10:05.027Z,1011.70
2018-10-02T00:11:04.980Z,1011.67
2018-10-02T00:12:04.934Z,1011.69
2018-10-02T00:13:04.889Z,1011.71
2018-10-02T00:14:04.843Z,1011.74
2018-10-02T00:15:04.797Z,1011.75
2018-10-02T00:16:04.751Z,1011.74
2018-10-02T00:17:04.704Z,1011.77
2018-10-02T00:18:04.658Z,1011.78
2018-10-02T00:19:04.612Z,1011.75
2018-10-02T00:20:04.567Z,1011.76
2018-10-02T00:21:04.521Z,1011.72
2018-10-02T00:22:04.475Z,1011.77
2018-10-02T00:23:04.428Z,1011.73
2018-10-02T00:24:04.383Z,1011.75
2018-10-02T00:25:04.337Z,1011.71
2018-10-02T00:26:04.291Z,1011.70
2018-10-02T00:27:04.244Z,1011.71
2018-10-02T00:28:04.200Z,1011.69
2018-10-02T00:29:04.152Z,1011.70
2018-10-02T00:30:04.107Z,1011.68
2018-10-02T00:31:04.062Z,1011.74
2018-10-02T00:32:04.170Z,1011.76
2018-10-02T00:33:03.971Z,1011.74
2018-10-02T00:34:03.927Z,1011.72
2018-10-02T00:35:03.876Z,1011.74
2018-10-02T00:36:03.830Z,1011.71
2018-10-02T00:37:03.787Z,1011.69
2018-10-02T00:38:03.739Z,1011.74
2018-10-02T00:39:03.692Z,1011.70
2018-10-02T00:40:03.646Z,1011.67
2018-10-02T00:41:03.600Z,1011.69
2018-10-02T00:42:03.555Z,1011.71
2018-10-02T00:43:03.508Z,1011.72
2018-10-02T00:44:03.462Z,1011.73
2018-10-02T00:45:03.417Z,1011.75
2018-10-02T00:46:03.371Z,1011.77
2018-10-02T00:47:03.640Z,1011.74
2018-10-02T00:48:03.278Z,1011.80
2018-10-02T00:49:03.233Z,1011.81
2018-10-02T00:50:03.187Z,1011.79
2018-10-02T00:51:03.144Z,1011.77
2018-10-02T00:52:03.094Z,1011.80
2018-10-02T00:53:03.048Z,1011.82
2018-10-02T00:54:03.003Z,1011.79
2018-10-02T00:55:02.956Z,1011.83
2018-10-02T00:56:02.910Z,1011.83
2018-10-02T00:57:02.864Z,1011.84
2018-10-02T00:58:02.818Z,1011.84
2018-10-02T00:59:02.772Z,1011.83
2018-10-02T01:00:02.726Z,1011.86
2018-10-02T01:01:02.680Z,1011.83
2018-10-02T01:02:02.635Z,1011.86
2018-10-02T01:03:02.587Z,1011.85
2018-10-02T01:04:02.541Z,1011.83
2018-10-02T01:05:02.496Z,1011.85
2018-10-02T01:06:02.456Z,1011.83
2018-10-02T01:07:02.403Z,1011.81
2018-10-02T01:08:02.357Z,1011.84
2018-10-02T01:09:02.312Z,1011.81
2018-10-02T01:10:02.266Z,1011.81
2018-10-02T01:11:02.222Z,1011.81
2018-10-02T01:12:02.174Z,1011.80
2018-10-02T01:13:02.127Z,1011.84
2018-10-02T01:14:02.082Z,1011.81
2018-10-02T01:15:02.034Z,1011.77
2018-10-02T01:16:01.990Z,1011.85
2018-10-02T01:17:01.944Z,1011.80
2018-10-02T01:18:01.898Z,1011.83
2018-10-02T01:19:01.853Z,1011.82
2018-10-02T01:20:01.806Z,1011.88
2018-10-02T01:21:01.759Z,1011.86
2018-10-02T01:22:01.715Z,1011.84
2018-10-02T01:23:01.671Z,1011.91
2018-10-02T01:24:01.620Z,1011.85
2018-10-02T01:25:01.574Z,1011.85
2018-10-02T01:26:01.531Z,1011.89
2018-10-02T01:27:01.482Z,1011.91
2018-10-02T01:28:01.436Z,1011.93
2018-10-02T01:29:01.390Z,1011.91
2018-10-02T01:30:01.344Z,1011.89
2018-10-02T01:31:01.301Z,1011.91
2018-10-02T01:32:01.252Z,1011.88
2018-10-02T01:33:01.206Z,1011.83
2018-10-02T01:34:01.162Z,1011.88
2018-10-02T01:35:01.114Z,1011.86
2018-10-02T01:36:01.068Z,1011.85
2018-10-02T01:37:01.023Z,1011.88
2018-10-02T01:38:00.975Z,1011.89
2018-10-02T01:39:00.929Z,1011.88
2018-10-02T01:40:00.933Z,1011.90
2018-10-02T01:41:00.838Z,1011.90
2018-10-02T01:42:00.791Z,1011.94
2018-10-02T01:43:00.745Z,1011.91
2018-10-02T01:44:00.699Z,1011.90
2018-10-02T01:45:00.653Z,1011.87
2018-10-02T01:46:00.612Z,1011.88
2018-10-02T01:47:00.561Z,1011.87
2018-10-02T01:48:00.514Z,1011.89
2018-10-02T01:49:00.469Z,1011.85
2018-10-02T01:50:00.423Z,1011.86
2018-10-02T01:51:00.383Z,1011.82
2018-10-02T01:52:00.331Z,1011.85
2018-10-02T01:53:00.284Z,1011.84
2018-10-02T01:54:00.239Z,1011.84
2018-10-02T01:55:00.192Z,1011.81
2018-10-02T01:56:00.146Z,1011.82
2018-10-02T01:57:00.100Z,1011.87
2018-10-02T01:58:00.054Z,1011.82
2018-10-02T01:59:00.008Z,1011.83
2018-10-02T01:59:59.963Z,1011.85
2018-10-02T02:00:59.916Z,1011.90
2018-10-02T02:01:59.870Z,1011.88
2018-10-02T02:02:59.824Z,1011.87
2018-10-02T02:03:59.777Z,1011.85
2018-10-02T02:04:59.732Z,1011.85
2018-10-02T02:05:59.686Z,1011.94
2018-10-02T02:06:59.689Z,1011.86
2018-10-02T02:07:59.593Z,1011.94
2018-10-02T02:08:59.547Z,1011.95
2018-10-02T02:09:59.502Z,1011.95
2018-10-02T02:10:59.454Z,1011.97
2018-10-02T02:12:59.681Z,1011.92
2018-10-02T02:13:59.633Z,1011.93
2018-10-02T02:14:59.586Z,1011.93
2018-10-02T02:15:59.227Z,1011.93
2018-10-02T02:16:59.179Z,1011.96
2018-10-02T02:17:59.132Z,1011.93
2018-10-02T02:18:59.086Z,1011.95
2018-10-02T02:19:59.040Z,1011.96
2018-10-02T02:20:58.996Z,1011.93
2018-10-02T02:21:58.950Z,1011.97
2018-10-02T02:22:58.902Z,1011.92
2018-10-02T02:23:58.860Z,1011.93
2018-10-02T02:24:58.811Z,1011.91
2018-10-02T02:25:58.765Z,1011.94
2018-10-02T02:26:58.717Z,1011.95
2018-10-02T02:27:58.671Z,1011.94
2018-10-02T02:28:58.625Z,1011.92
2018-10-02T02:29:58.579Z,1011.96
2018-10-02T02:30:58.533Z,1011.96
2018-10-02T02:31:58.487Z,1011.94
2018-10-02T02:32:58.440Z,1011.92
2018-10-02T02:33:58.395Z,1011.93
2018-10-02T02:34:58.348Z,1011.93
2018-10-02T02:35:58.302Z,1011.88
2018-10-02T02:36:58.256Z,1011.93
2018-10-02T02:37:58.211Z,1011.95
2018-10-02T02:38:58.163Z,1011.95
2018-10-02T02:39:58.118Z,1011.95
2018-10-02T02:40:58.072Z,1011.96
2018-10-02T02:41:58.026Z,1011.95
2018-10-02T02:42:57.985Z,1011.99
2018-10-02T02:43:57.933Z,1011.98
2018-10-02T02:44:57.889Z,1012.01
2018-10-02T02:45:57.841Z,1012.02
2018-10-02T02:46:57.796Z,1012.05
2018-10-02T02:47:57.748Z,1012.10
2018-10-02T02:48:57.703Z,1012.05
2018-10-02T02:49:57.658Z,1012.05
2018-10-02T02:50:57.611Z,1012.04
2018-10-02T02:51:57.564Z,1012.04
2018-10-02T02:52:57.527Z,1012.06
2018-10-02T02:53:57.473Z,1012.05
2018-10-02T02:54:57.425Z,1012.06
2018-10-02T02:55:57.385Z,1012.07
2018-10-02T02:56:57.335Z,1012.00
2018-10-02T02:57:57.289Z,1012.01
2018-10-02T02:58:57.241Z,1012.00
2018-10-02T02:59:57.195Z,1012.00
2018-10-02T03:00:57.151Z,1012.00
2018-10-02T03:01:57.104Z,1011.98
2018-10-02T03:02:57.056Z,1012.00
2018-10-02T03:03:57.011Z,1012.03
2018-10-02T03:04:56.964Z,1012.04
2018-10-02T03:05:56.922Z,1012.04
2018-10-02T03:06:56.872Z,1011.99
2018-10-02T03:07:56.825Z,1011.94
2018-10-02T03:08:56.782Z,1011.94
2018-10-02T03:09:56.735Z,1011.95
2018-10-02T03:10:56.687Z,1011.91
2018-10-02T03:11:56.656Z,1011.95
2018-10-02T03:12:56.596Z,1011.96
2018-10-02T03:13:56.550Z,1012.01
2018-10-02T03:14:56.517Z,1011.99
2018-10-02T03:15:56.456Z,1012.00
2018-10-02T03:16:56.414Z,1011.94
2018-10-02T03:17:56.365Z,1011.92
2018-10-02T03:18:56.317Z,1011.92
2018-10-02T03:19:56.273Z,1011.90
2018-10-02T03:20:56.226Z,1011.88
2018-10-02T03:21:56.291Z,1011.92
2018-10-02T03:22:56.133Z,1011.91
2018-10-02T03:23:56.089Z,1011.88
2018-10-02T03:24:56.042Z,1011.87
2018-10-02T03:25:55.996Z,1011.85
2018-10-02T03:26:55.948Z,1011.82
2018-10-02T03:27:55.903Z,1011.83
2018-10-02T03:28:55.857Z,1011.83
2018-10-02T03:29:55.811Z,1011.86
2018-10-02T03:30:55.765Z,1011.84
2018-10-02T03:31:55.718Z,1011.84
2018-10-02T03:32:55.672Z,1011.87
2018-10-02T03:33:55.626Z,1011.91
2018-10-02T03:34:55.580Z,1011.99
2018-10-02T03:35:55.538Z,1011.99
2018-10-02T03:36:55.488Z,1012.05
2018-10-02T03:37:55.577Z,1011.96
2018-10-02T03:38:55.400Z,1012.01
2018-10-02T03:39:55.349Z,1011.99
2018-10-02T03:40:55.305Z,1012.01
2018-10-02T03:41:55.257Z,1011.97
2018-10-02T03:42:55.210Z,1011.98
2018-10-02T03:43:55.167Z,1011.97
2018-10-02T03:44:55.118Z,1012.01
2018-10-02T03:45:55.076Z,1011.96
2018-10-02T03:46:55.026Z,1011.94
2018-10-02T03:47:54.980Z,1012.00
2018-10-02T03:48:54.991Z,1011.94
2018-10-02T03:49:54.888Z,1011.97
2018-10-02T03:50:54.840Z,1011.92
2018-10-02T03:51:54.795Z,1011.98
2018-10-02T03:52:54.749Z,1011.95
2018-10-02T03:53:54.703Z,1011.98
2018-10-02T03:54:54.656Z,1011.98
2018-10-02T03:55:54.610Z,1011.97
2018-10-02T03:56:54.568Z,1011.94
2018-10-02T03:57:54.519Z,1011.94
2018-10-02T03:58:54.473Z,1011.87
2018-10-02T03:59:54.426Z,1011.90
2018-10-02T04:00:54.380Z,1011.90
2018-10-02T04:01:54.334Z,1011.88
2018-10-02T04:02:54.288Z,1011.88
2018-10-02T04:03:54.241Z,1011.94
2018-10-02T04:04:54.195Z,1011.86
2018-10-02T04:05:54.151Z,1011.84
2018-10-02T04:06:54.102Z,1011.88
2018-10-02T04:07:54.056Z,1011.89
2018-10-02T04:08:54.010Z,1011.92
2018-10-02T04:09:53.966Z,1011.97
2018-10-02T04:10:53.917Z,1011.91
2018-10-02T04:11:53.873Z,1012.04
2018-10-02T04:12:53.825Z,1012.01
2018-10-02T04:13:53.779Z,1011.97
2018-10-02T04:14:53.733Z,1011.97
2018-10-02T04:15:53.686Z,1011.94
2018-10-02T04:16:53.642Z,1011.98
2018-10-02T04:17:53.595Z,1011.99
2018-10-02T04:18:53.548Z,1011.95
2018-10-02T04:19:53.502Z,1011.98
2018-10-02T04:20:53.577Z,1012.02
2018-10-02T04:21:53.417Z,1012.00
2018-10-02T04:22:53.363Z,1012.02
2018-10-02T04:23:53.324Z,1011.99
2018-10-02T04:24:53.271Z,1011.98
2018-10-02T04:25:53.225Z,1011.97
2018-10-02T04:26:53.180Z,1011.92
2018-10-02T04:27:53.200Z,1011.94
2018-10-02T04:28:53.086Z,1011.95
2018-10-02T04:29:53.040Z,1011.99
2018-10-02T04:30:52.993Z,1012.02
2018-10-02T04:31:52.948Z,1012.00
2018-10-02T04:32:52.901Z,1012.04
2018-10-02T04:33:53.013Z,1012.03
2018-10-02T04:34:52.808Z,1012.02
2018-10-02T04:35:52.762Z,1012.04
2018-10-02T04:36:52.716Z,1012.07
2018-10-02T04:37:52.671Z,1012.05
2018-10-02T04:38:52.623Z,1012.06
2018-10-02T04:39:52.577Z,1012.07
2018-10-02T04:40:52.531Z,1012.08
2018-10-02T04:41:52.486Z,1012.07
2018-10-02T04:42:52.438Z,1012.04
2018-10-02T04:43:52.392Z,1012.09
2018-10-02T04:44:52.346Z,1012.09
2018-10-02T04:45:52.300Z,1012.09
2018-10-02T04:46:52.279Z,1012.09
2018-10-02T04:47:52.208Z,1012.07
2018-10-02T04:48:52.168Z,1012.13
2018-10-02T04:49:52.115Z,1012.11
2018-10-02T04:50:52.068Z,1012.13
2018-10-02T04:51:52.022Z,1012.13
2018-10-02T04:52:51.976Z,1012.12
2018-10-02T04:53:51.931Z,1012.15
2018-10-02T04:54:51.887Z,1012.15
2018-10-02T04:55:51.940Z,1012.11
2018-10-02T04:56:51.791Z,1012.12
2018-10-02T04:57:51.745Z,1012.14
2018-10-02T04:58:51.698Z,1012.16
2018-10-02T04:59:51.652Z,1012.11
2018-10-02T05:00:51.608Z,1012.13
2018-10-02T05:01:51.559Z,1012.13
2018-10-02T05:02:51.513Z,1012.14
2018-10-02T05:03:51.467Z,1012.15
2018-10-02T05:04:51.424Z,1012.14
2018-10-02T05:05:51.380Z,1012.14
2018-10-02T05:06:51.329Z,1012.16
2018-10-02T05:07:51.283Z,1012.17
2018-10-02T05:08:51.302Z,1012.19
2018-10-02T05:09:51.191Z,1012.18
2018-10-02T05:10:51.147Z,1012.21
2018-10-02T05:11:51.098Z,1012.17
2018-10-02T05:12:51.052Z,1012.16
2018-10-02T05:13:51.006Z,1012.21
2018-10-02T05:14:50.959Z,1012.21
2018-10-02T05:15:50.913Z,1012.24
2018-10-02T05:16:50.867Z,1012.26
2018-10-02T05:17:50.820Z,1012.29
2018-10-02T05:18:50.774Z,1012.28
2018-10-02T05:19:50.730Z,1012.30
2018-10-02T05:20:50.789Z,1012.35
2018-10-02T05:21:50.635Z,1012.40
2018-10-02T05:22:50.589Z,1012.31
2018-10-02T05:23:50.545Z,1012.34
2018-10-02T05:24:50.496Z,1012.31
2018-10-02T05:25:50.451Z,1012.30
2018-10-02T05:26:50.403Z,1012.32
2018-10-02T05:27:50.419Z,1012.33
2018-10-02T05:28:50.311Z,1012.30
2018-10-02T05:29:50.265Z,1012.27
2018-10-02T05:30:50.218Z,1012.27
2018-10-02T05:31:50.180Z,1012.26
2018-10-02T05:32:50.144Z,1012.28
2018-10-02T05:33:50.080Z,1012.28
2018-10-02T05:34:50.049Z,1012.30
2018-10-02T05:35:49.987Z,1012.27
2018-10-02T05:36:49.940Z,1012.26
2018-10-02T05:37:49.895Z,1012.27
2018-10-02T05:38:49.848Z,1012.26
2018-10-02T05:39:49.801Z,1012.26
2018-10-02T05:40:49.756Z,1012.32
2018-10-02T05:41:49.710Z,1012.28
2018-10-02T05:42:49.755Z,1012.34
2018-10-02T05:43:49.617Z,1012.36
2018-10-02T05:44:49.573Z,1012.32
2018-10-02T05:45:49.525Z,1012.33
2018-10-02T05:46:49.478Z,1012.35
2018-10-02T05:47:49.436Z,1012.36
2018-10-02T05:48:49.390Z,1012.37
2018-10-02T05:49:49.343Z,1012.41
2018-10-02T05:50:49.292Z,1012.39
2018-10-02T05:51:49.246Z,1012.35
2018-10-02T05:52:49.200Z,1012.38
2018-10-02T05:53:49.154Z,1012.33
2018-10-02T05:54:49.107Z,1012.37
2018-10-02T05:55:49.061Z,1012.42
2018-10-02T05:56:49.019Z,1012.41
2018-10-02T05:57:48.969Z,1012.39
2018-10-02T05:58:48.923Z,1012.44
2018-10-02T05:59:48.881Z,1012.46
2018-10-02T06:00:48.830Z,1012.46
2018-10-02T06:01:48.787Z,1012.43
2018-10-02T06:02:48.737Z,1012.48
2018-10-02T06:03:48.760Z,1012.45
2018-10-02T06:04:48.645Z,1012.45
2018-10-02T06:05:48.603Z,1012.45
2018-10-02T06:06:48.552Z,1012.46
2018-10-02T06:07:48.505Z,1012.47
2018-10-02T06:08:48.461Z,1012.50
2018-10-02T06:09:48.431Z,1012.52
2018-10-02T06:10:48.367Z,1012.56
2018-10-02T06:11:48.322Z,1012.59
2018-10-02T06:12:48.275Z,1012.59
2018-10-02T06:13:48.231Z,1012.64
2018-10-02T06:14:48.183Z,1012.62
2018-10-02T06:15:48.138Z,1012.64
2018-10-02T06:16:48.092Z,1012.61
2018-10-02T06:17:48.045Z,1012.68
2018-10-02T06:18:48.125Z,1012.70
2018-10-02T06:19:47.952Z,1012.69
2018-10-02T06:20:47.906Z,1012.75
2018-10-02T06:21:47.860Z,1012.71
2018-10-02T06:22:47.814Z,1012.72
2018-10-02T06:23:47.767Z,1012.70
2018-10-02T06:24:47.861Z,1012.70
2018-10-02T06:25:47.679Z,1012.72
2018-10-02T06:26:47.631Z,1012.69
2018-10-02T06:27:47.582Z,1012.72
2018-10-02T06:28:47.536Z,1012.77
2018-10-02T06:29:47.490Z,1012.68
2018-10-02T06:30:47.443Z,1012.70
2018-10-02T06:31:47.398Z,1012.67
2018-10-02T06:32:47.411Z,1012.68
2018-10-02T06:33:47.304Z,1012.72
2018-10-02T06:34:47.257Z,1012.69
2018-10-02T06:35:47.220Z,1012.73
2018-10-02T06:36:47.187Z,1012.71
2018-10-02T06:37:47.121Z,1012.65
2018-10-02T06:38:47.079Z,1012.66
2018-10-02T06:39:47.029Z,1012.70
2018-10-02T06:40:46.987Z,1012.72
2018-10-02T06:41:46.938Z,1012.72
2018-10-02T06:42:46.890Z,1012.76
2018-10-02T06:43:46.995Z,1012.74
2018-10-02T06:44:46.983Z,1012.76
2018-10-02T06:45:46.753Z,1012.71
2018-10-02T06:46:46.706Z,1012.67
2018-10-02T06:47:46.664Z,1012.66
2018-10-02T06:48:46.617Z,1012.65
2018-10-02T06:49:46.568Z,1012.65
2018-10-02T06:50:46.583Z,1012.66
2018-10-02T06:51:46.525Z,1012.66
2018-10-02T06:52:46.607Z,1012.69
2018-10-02T06:53:46.405Z,1012.67
2018-10-02T06:54:46.339Z,1012.65
2018-10-02T06:55:46.294Z,1012.66
2018-10-02T06:56:46.299Z,1012.59
2018-10-02T06:57:46.252Z,1012.66
2018-10-02T06:58:46.156Z,1012.60
2018-10-02T06:59:46.111Z,1012.57
2018-10-02T07:00:46.066Z,1012.56
2018-10-02T07:01:46.020Z,1012.60
2018-10-02T07:02:45.981Z,1012.55
2018-10-02T07:03:45.929Z,1012.54
2018-10-02T07:04:45.881Z,1012.52
2018-10-02T07:05:45.837Z,1012.51
2018-10-02T07:06:45.819Z,1012.51
2018-10-02T07:07:45.744Z,1012.51
2018-10-02T07:08:45.745Z,1012.55
2018-10-02T07:09:45.658Z,1012.58
2018-10-02T07:10:45.609Z,1012.54
2018-10-02T07:11:45.563Z,1012.53
2018-10-02T07:12:45.517Z,1012.50
2018-10-02T07:13:45.472Z,1012.45
2018-10-02T07:14:45.518Z,1012.49
2018-10-02T07:15:45.382Z,1012.46
2018-10-02T07:16:45.334Z,1012.46
2018-10-02T07:17:45.293Z,1012.47
2018-10-02T07:18:45.243Z,1012.42
2018-10-02T07:19:45.200Z,1012.48
2018-10-02T07:20:45.240Z,1012.40
2018-10-02T07:21:45.106Z,1012.37
2018-10-02T07:22:45.060Z,1012.40
2018-10-02T07:23:45.015Z,1012.36
2018-10-02T07:24:44.972Z,1012.35
2018-10-02T07:25:44.929Z,1012.33
2018-10-02T07:26:44.972Z,1012.38
2018-10-02T07:27:45.011Z,1012.37
2018-10-02T07:28:44.786Z,1012.34
2018-10-02T07:29:44.740Z,1012.36
2018-10-02T07:30:44.811Z,1012.35
2018-10-02T07:31:44.648Z,1012.37
2018-10-02T07:32:44.683Z,1012.38
2018-10-02T07:33:44.587Z,1012.42
2018-10-02T07:34:44.510Z,1012.38
2018-10-02T07:35:44.463Z,1012.40
2018-10-02T07:36:44.432Z,1012.39
2018-10-02T07:37:44.373Z,1012.36
2018-10-02T07:38:44.392Z,1012.36
2018-10-02T07:39:44.284Z,1012.32
2018-10-02T07:40:44.234Z,1012.38
2018-10-02T07:41:44.543Z,1012.42
2018-10-02T07:42:44.143Z,1012.38
2018-10-02T07:43:44.096Z,1012.34
2018-10-02T07:44:44.164Z,1012.33
2018-10-02T07:45:44.007Z,1012.42
2018-10-02T07:46:43.959Z,1012.34
2018-10-02T07:47:44.059Z,1012.34
2018-10-02T07:48:43.870Z,1012.37
2018-10-02T07:49:43.824Z,1012.38
2018-10-02T07:50:43.889Z,1012.34
2018-10-02T07:51:43.732Z,1012.33
2018-10-02T07:52:43.690Z,1012.36
2018-10-02T07:53:43.724Z,1012.31
2018-10-02T07:54:43.596Z,1012.32
2018-10-02T07:55:43.552Z,1012.32
2018-10-02T07:56:43.602Z,1012.37
2018-10-02T07:57:43.459Z,1012.32
2018-10-02T07:58:43.412Z,1012.34
2018-10-02T07:59:43.524Z,1012.38
2018-10-02T08:00:43.322Z,1012.38
2018-10-02T08:01:43.276Z,1012.35
2018-10-02T08:02:43.244Z,1012.36
2018-10-02T08:03:43.186Z,1012.35
2018-10-02T08:04:43.162Z,1012.36
2018-10-02T08:05:43.193Z,1012.36
2018-10-02T08:06:43.049Z,1012.38
2018-10-02T08:07:43.004Z,1012.37
2018-10-02T08:08:43.022Z,1012.28
2018-10-02T08:09:42.916Z,1012.35
2018-10-02T08:10:42.868Z,1012.31
2018-10-02T08:11:42.840Z,1012.29
2018-10-02T08:12:42.778Z,1012.32
2018-10-02T08:13:42.732Z,1012.27
2018-10-02T08:14:42.764Z,1012.24
2018-10-02T08:15:42.643Z,1012.23
2018-10-02T08:16:42.597Z,1012.16
2018-10-02T08:17:42.708Z,1012.12
2018-10-02T08:18:42.507Z,1012.12
2018-10-02T08:19:42.462Z,1012.16
2018-10-02T08:20:42.464Z,1012.14
2018-10-02T08:21:42.372Z,1012.08
2018-10-02T08:22:42.326Z,1012.13
2018-10-02T08:23:42.366Z,1012.09
2018-10-02T08:24:42.237Z,1012.09
2018-10-02T08:25:42.192Z,1012.11
2018-10-02T08:26:42.260Z,1012.10
2018-10-02T08:27:42.202Z,1012.01
2018-10-02T08:28:42.106Z,1012.01
2018-10-02T08:29:42.123Z,1012.01
2018-10-02T08:30:41.965Z,1011.97
2018-10-02T08:31:41.919Z,1011.97
2018-10-02T08:32:41.901Z,1011.91
2018-10-02T08:33:41.829Z,1011.94
2018-10-02T08:34:41.783Z,1011.87
2018-10-02T08:35:41.786Z,1011.84
2018-10-02T08:36:41.693Z,1011.82
2018-10-02T08:37:41.650Z,1011.78
2018-10-02T08:38:41.684Z,1011.77
2018-10-02T08:39:41.556Z,1011.81
2018-10-02T08:40:41.513Z,1011.84
2018-10-02T08:41:41.519Z,1011.79
2018-10-02T08:42:41.423Z,1011.76
2018-10-02T08:43:41.506Z,1011.78
2018-10-02T08:44:41.411Z,1011.75
2018-10-02T08:45:41.284Z,1011.77
2018-10-02T08:46:41.237Z,1011.77
2018-10-02T08:47:41.264Z,1011.80
2018-10-02T08:48:41.147Z,1011.76
2018-10-02T08:49:41.101Z,1011.76
2018-10-02T08:50:41.203Z,1011.68
2018-10-02T08:51:41.035Z,1011.70
2018-10-02T08:52:40.964Z,1011.66
2018-10-02T08:53:41.081Z,1011.64
2018-10-02T08:54:40.888Z,1011.60
2018-10-02T08:55:40.827Z,1011.51
2018-10-02T08:56:40.784Z,1011.54
2018-10-02T08:57:40.736Z,1011.55
2018-10-02T08:58:40.689Z,1011.49
2018-10-02T08:59:40.643Z,1011.53
2018-10-02T09:00:40.644Z,1011.56
2018-10-02T09:01:40.556Z,1011.56
2018-10-02T09:02:40.506Z,1011.56
2018-10-02T09:03:40.460Z,1011.54
2018-10-02T09:04:40.416Z,1011.56
2018-10-02T09:05:40.370Z,1011.59
2018-10-02T09:06:40.443Z,1011.59
2018-10-02T09:07:40.279Z,1011.60
2018-10-02T09:08:40.232Z,1011.63
2018-10-02T09:09:40.188Z,1011.65
2018-10-02T09:10:40.139Z,1011.60
2018-10-02T09:11:40.094Z,1011.63
2018-10-02T09:12:40.125Z,1011.64
2018-10-02T09:13:40.050Z,1011.64
2018-10-02T09:14:39.957Z,1011.61
2018-10-02T09:15:39.988Z,1011.63
2018-10-02T09:16:39.949Z,1011.57
2018-10-02T09:17:39.820Z,1011.58
2018-10-02T09:18:39.890Z,1011.54
2018-10-02T09:19:39.728Z,1011.53
2018-10-02T09:20:39.689Z,1011.52
2018-10-02T09:21:39.726Z,1011.55
2018-10-02T09:22:39.590Z,1011.42
2018-10-02T09:23:39.545Z,1011.50
2018-10-02T09:24:39.587Z,1011.48
2018-10-02T09:25:39.453Z,1011.49
2018-10-02T09:26:39.406Z,1011.44
2018-10-02T09:27:39.449Z,1011.47
2018-10-02T09:28:39.428Z,1011.44
2018-10-02T09:29:39.268Z,1011.45
2018-10-02T09:30:39.279Z,1011.37
2018-10-02T09:31:39.177Z,1011.37
2018-10-02T09:32:39.134Z,1011.38
2018-10-02T09:33:39.196Z,1011.32
2018-10-02T09:34:39.040Z,1011.33
2018-10-02T09:35:38.997Z,1011.31
2018-10-02T09:36:38.980Z,1011.25
2018-10-02T09:37:38.903Z,1011.36
2018-10-02T09:38:38.859Z,1011.33
2018-10-02T09:39:38.875Z,1011.30
2018-10-02T09:40:38.765Z,1011.32
2018-10-02T09:41:38.718Z,1011.32
2018-10-02T09:42:38.810Z,1011.31
2018-10-02T09:43:38.798Z,1011.30
2018-10-02T09:44:38.582Z,1011.31
2018-10-02T09:45:38.630Z,1011.26
2018-10-02T09:46:38.490Z,1011.23
2018-10-02T09:47:38.444Z,1011.21
2018-10-02T09:48:38.408Z,1011.18
2018-10-02T09:49:38.382Z,1011.10
2018-10-02T09:50:38.387Z,1011.16
2018-10-02T09:51:38.309Z,1011.08
2018-10-02T09:52:38.216Z,1011.09
2018-10-02T09:53:38.170Z,1011.05
2018-10-02T09:54:38.164Z,1011.09
2018-10-02T09:55:38.078Z,1011.04
2018-10-02T09:56:38.061Z,1011.04
2018-10-02T09:57:37.987Z,1011.04
2018-10-02T09:58:38.010Z,1011.03
2018-10-02T09:59:37.895Z,1010.97
2018-10-02T10:00:37.929Z,1010.94
2018-10-02T10:01:37.809Z,1011.00
2018-10-02T10:02:37.816Z,1010.94
2018-10-02T10:03:37.711Z,1010.99
2018-10-02T10:04:37.665Z,1010.98
2018-10-02T10:05:37.620Z,1010.97
2018-10-02T10:06:37.575Z,1010.96
2018-10-02T10:07:37.528Z,1010.98
2018-10-02T10:08:37.484Z,1010.93
2018-10-02T10:09:37.437Z,1011.00
2018-10-02T10:10:37.421Z,1010.97
2018-10-02T10:11:37.345Z,1010.94
2018-10-02T10:12:37.298Z,1010.99
2018-10-02T10:13:37.253Z,1010.90
2018-10-02T10:14:37.206Z,1010.90
2018-10-02T10:15:37.161Z,1010.85
2018-10-02T10:16:37.192Z,1010.84
2018-10-02T10:17:37.069Z,1010.89
2018-10-02T10:18:37.023Z,1010.84
2018-10-02T10:19:36.977Z,1010.84
2018-10-02T10:20:36.932Z,1010.87
2018-10-02T10:21:36.886Z,1010.80
2018-10-02T10:22:36.922Z,1010.80
2018-10-02T10:23:36.793Z,1010.78
2018-10-02T10:24:36.749Z,1010.72
2018-10-02T10:25:36.702Z,1010.83
2018-10-02T10:26:36.721Z,1010.80
2018-10-02T10:27:36.609Z,1010.85
2018-10-02T10:28:36.591Z,1010.83
2018-10-02T10:29:36.518Z,1010.85
2018-10-02T10:30:36.472Z,1010.83
2018-10-02T10:31:36.424Z,1010.83
2018-10-02T10:32:36.380Z,1010.84
2018-10-02T10:33:36.386Z,1010.88
2018-10-02T10:34:36.320Z,1010.84
2018-10-02T10:35:36.243Z,1010.87
2018-10-02T10:36:36.196Z,1010.91
2018-10-02T10:37:36.151Z,1010.82
2018-10-02T10:38:36.103Z,1010.74
2018-10-02T10:39:36.065Z,1010.71
2018-10-02T10:40:36.064Z,1010.78
2018-10-02T10:41:35.974Z,1010.68
2018-10-02T10:42:35.920Z,1010.68
2018-10-02T10:43:35.876Z,1010.68
2018-10-02T10:44:35.829Z,1010.64
2018-10-02T10:45:35.783Z,1010.60
2018-10-02T10:46:35.787Z,1010.59
2018-10-02T10:47:35.704Z,1010.60
2018-10-02T10:48:35.646Z,1010.57
2018-10-02T10:49:35.599Z,1010.54
2018-10-02T10:50:35.552Z,1010.58
2018-10-02T10:51:35.506Z,1010.54
2018-10-02T10:52:35.498Z,1010.51
2018-10-02T10:53:35.417Z,1010.49
2018-10-02T10:54:35.371Z,1010.51
2018-10-02T10:55:35.322Z,1010.43
2018-10-02T10:56:35.394Z,1010.47
2018-10-02T10:57:35.286Z,1010.50
2018-10-02T10:58:35.224Z,1010.47
2018-10-02T10:59:35.143Z,1010.45
2018-10-02T11:00:35.094Z,1010.45
2018-10-02T11:01:35.048Z,1010.46
2018-10-02T11:02:35.002Z,1010.39
2018-10-02T11:03:34.955Z,1010.40
2018-10-02T11:04:35.079Z,1010.30
2018-10-02T11:05:34.867Z,1010.33
2018-10-02T11:06:34.816Z,1010.32
2018-10-02T11:07:34.775Z,1010.29
2018-10-02T11:08:34.726Z,1010.24
2018-10-02T11:09:34.816Z,1010.34
2018-10-02T11:10:34.634Z,1010.40
2018-10-02T11:11:34.589Z,1010.47
2018-10-02T11:12:34.543Z,1010.30
2018-10-02T11:13:34.497Z,1010.40
2018-10-02T11:14:34.450Z,1010.36
2018-10-02T11:15:34.407Z,1010.40
2018-10-02T11:16:34.359Z,1010.30
2018-10-02T11:17:34.312Z,1010.30
2018-10-02T11:18:34.267Z,1010.32
2018-10-02T11:19:34.244Z,1010.30
2018-10-02T11:20:34.174Z,1010.31
2018-10-02T11:21:34.133Z,1010.26
2018-10-02T11:22:34.083Z,1010.27
2018-10-02T11:23:34.037Z,1010.35
2018-10-02T11:24:33.991Z,1010.30
2018-10-02T11:25:34.022Z,1010.33
2018-10-02T11:26:33.899Z,1010.30
2018-10-02T11:27:33.853Z,1010.25
2018-10-02T11:28:33.808Z,1010.27
2018-10-02T11:29:33.788Z,1010.26
2018-10-02T11:30:33.716Z,1010.24
2018-10-02T11:31:33.701Z,1010.25
2018-10-02T11:32:33.625Z,1010.30
2018-10-02T11:33:33.579Z,1010.24
2018-10-02T11:34:33.533Z,1010.21
2018-10-02T11:35:33.594Z,1010.18
2018-10-02T11:36:33.440Z,1010.18
2018-10-02T11:37:33.445Z,1010.14
2018-10-02T11:38:33.348Z,1010.10
2018-10-02T11:39:33.303Z,1009.99
2018-10-02T11:40:33.256Z,1010.02
2018-10-02T11:41:33.214Z,1009.98
2018-10-02T11:42:33.164Z,1009.95
2018-10-02T11:43:33.173Z,1009.99
2018-10-02T11:44:33.121Z,1009.91
2018-10-02T11:45:33.128Z,1009.85
2018-10-02T11:46:32.978Z,1009.83
2018-10-02T11:47:32.933Z,1009.70
2018-10-02T11:48:32.888Z,1009.68
2018-10-02T11:49:32.907Z,1009.64
2018-10-02T11:50:32.795Z,1009.63
2018-10-02T11:51:32.749Z,1009.56
2018-10-02T11:52:32.703Z,1009.55
2018-10-02T11:53:32.657Z,1009.50
2018-10-02T11:54:32.611Z,1009.49
2018-10-02T11:55:32.600Z,1009.41
2018-10-02T11:56:32.521Z,1009.37
2018-10-02T11:57:32.537Z,1009.32
2018-10-02T11:58:32.432Z,1009.25
2018-10-02T11:59:32.380Z,1009.24
2018-10-02T12:00:32.360Z,1009.20
2018-10-02T12:01:32.288Z,1009.15
2018-10-02T12:02:32.278Z,1009.16
2018-10-02T12:03:32.321Z,1009.20
2018-10-02T12:04:32.149Z,1009.22
2018-10-02T12:05:32.104Z,1009.18